sensor_id;sensor_type;location;lat;lon;timestamp;temperature;humidity
29093;DHT22;16167;48.768;14.984;2022-08-19T00:02:03;16.10;55.50
29093;DHT22;16167;48.768;14.984;2022-08-19T00:04:34;16.10;52.80
29093;DHT22;16167;48.768;14.984;2022-08-19T00:07:04;16.10;58.60
29093;DHT22;16167;48.768;14.984;2022-08-19T00:09:33;16.20;48.80
29093;DHT22;16167;48.768;14.984;2022-08-19T00:12:02;16.20;50.20
29093;DHT22;16167;48.768;14.984;2022-08-19T00:14:33;16.20;62.10
29093;DHT22;16167;48.768;14.984;2022-08-19T00:17:04;16.30;51.10
29093;DHT22;16167;48.768;14.984;2022-08-19T00:19:48;16.30;39.90
29093;DHT22;16167;48.768;14.984;2022-08-19T00:22:17;16.40;45.50
29093;DHT22;16167;48.768;14.984;2022-08-19T00:24:45;16.40;47.80
29093;DHT22;16167;48.768;14.984;2022-08-19T00:27:16;16.40;47.10
29093;DHT22;16167;48.768;14.984;2022-08-19T00:29:52;16.40;45.50
29093;DHT22;16167;48.768;14.984;2022-08-19T00:32:37;16.40;40.00
29093;DHT22;16167;48.768;14.984;2022-08-19T00:35:06;16.40;46.60
29093;DHT22;16167;48.768;14.984;2022-08-19T00:37:34;16.40;42.70
29093;DHT22;16167;48.768;14.984;2022-08-19T00:40:05;16.30;44.00
29093;DHT22;16167;48.768;14.984;2022-08-19T00:42:33;16.40;46.60
29093;DHT22;16167;48.768;14.984;2022-08-19T00:45:03;16.30;34.10
29093;DHT22;16167;48.768;14.984;2022-08-19T00:47:38;16.30;43.70
29093;DHT22;16167;48.768;14.984;2022-08-19T00:50:21;16.30;46.70
29093;DHT22;16167;48.768;14.984;2022-08-19T00:52:52;16.30;45.20
29093;DHT22;16167;48.768;14.984;2022-08-19T00:55:24;16.30;44.20
29093;DHT22;16167;48.768;14.984;2022-08-19T00:57:58;16.30;43.70
29093;DHT22;16167;48.768;14.984;2022-08-19T01:00:37;16.20;42.60
29093;DHT22;16167;48.768;14.984;2022-08-19T01:03:18;16.20;43.70
29093;DHT22;16167;48.768;14.984;2022-08-19T01:05:51;16.20;41.00
29093;DHT22;16167;48.768;14.984;2022-08-19T01:08:23;16.20;41.90
29093;DHT22;16167;48.768;14.984;2022-08-19T01:10:59;16.20;39.90
29093;DHT22;16167;48.768;14.984;2022-08-19T01:13:33;16.20;30.00
29093;DHT22;16167;48.768;14.984;2022-08-19T01:16:17;16.20;30.00
29093;DHT22;16167;48.768;14.984;2022-08-19T01:18:48;16.10;35.50
29093;DHT22;16167;48.768;14.984;2022-08-19T01:21:20;16.10;35.50
29093;DHT22;16167;48.768;14.984;2022-08-19T01:23:51;16.10;44.30
29093;DHT22;16167;48.768;14.984;2022-08-19T01:26:21;16.10;45.40
29093;DHT22;16167;48.768;14.984;2022-08-19T01:28:53;16.10;36.00
29093;DHT22;16167;48.768;14.984;2022-08-19T01:31:27;16.10;33.30
29093;DHT22;16167;48.768;14.984;2022-08-19T01:33:59;16.10;39.70
29093;DHT22;16167;48.768;14.984;2022-08-19T01:36:31;16.00;38.00
29093;DHT22;16167;48.768;14.984;2022-08-19T01:39:03;15.90;34.50
29093;DHT22;16167;48.768;14.984;2022-08-19T01:41:32;15.90;35.40
29093;DHT22;16167;48.768;14.984;2022-08-19T01:44:01;15.90;39.30
29093;DHT22;16167;48.768;14.984;2022-08-19T01:46:48;15.80;37.70
29093;DHT22;16167;48.768;14.984;2022-08-19T01:49:32;15.80;41.10
29093;DHT22;16167;48.768;14.984;2022-08-19T01:52:01;15.70;52.50
29093;DHT22;16167;48.768;14.984;2022-08-19T01:54:44;15.80;49.60
29093;DHT22;16167;48.768;14.984;2022-08-19T01:57:16;15.70;47.40
29093;DHT22;16167;48.768;14.984;2022-08-19T01:59:45;15.70;50.20
29093;DHT22;16167;48.768;14.984;2022-08-19T02:02:13;15.70;51.20
29093;DHT22;16167;48.768;14.984;2022-08-19T02:04:41;15.70;49.50
29093;DHT22;16167;48.768;14.984;2022-08-19T02:07:09;15.60;55.70
29093;DHT22;16167;48.768;14.984;2022-08-19T02:09:37;15.60;48.30
29093;DHT22;16167;48.768;14.984;2022-08-19T02:12:12;15.60;49.90
29093;DHT22;16167;48.768;14.984;2022-08-19T02:14:40;15.50;54.60
29093;DHT22;16167;48.768;14.984;2022-08-19T02:17:09;15.50;53.50
29093;DHT22;16167;48.768;14.984;2022-08-19T02:19:38;15.50;56.10
29093;DHT22;16167;48.768;14.984;2022-08-19T02:22:07;15.50;56.30
29093;DHT22;16167;48.768;14.984;2022-08-19T02:24:38;15.40;55.50
29093;DHT22;16167;48.768;14.984;2022-08-19T02:27:07;15.40;52.60
29093;DHT22;16167;48.768;14.984;2022-08-19T02:29:35;15.40;69.00
29093;DHT22;16167;48.768;14.984;2022-08-19T02:32:03;15.40;68.00
29093;DHT22;16167;48.768;14.984;2022-08-19T02:34:33;15.40;52.80
29093;DHT22;16167;48.768;14.984;2022-08-19T02:37:01;15.40;57.70
29093;DHT22;16167;48.768;14.984;2022-08-19T02:39:30;15.30;53.40
29093;DHT22;16167;48.768;14.984;2022-08-19T02:41:58;15.30;59.60
29093;DHT22;16167;48.768;14.984;2022-08-19T02:44:30;15.30;74.10
29093;DHT22;16167;48.768;14.984;2022-08-19T02:46:58;15.30;69.20
29093;DHT22;16167;48.768;14.984;2022-08-19T02:49:27;15.30;69.30
29093;DHT22;16167;48.768;14.984;2022-08-19T02:52:01;15.30;62.20
29093;DHT22;16167;48.768;14.984;2022-08-19T02:54:48;15.30;69.90
29093;DHT22;16167;48.768;14.984;2022-08-19T02:57:17;15.20;76.10
29093;DHT22;16167;48.768;14.984;2022-08-19T03:00:15;15.30;72.40
29093;DHT22;16167;48.768;14.984;2022-08-19T03:02:43;15.20;79.40
29093;DHT22;16167;48.768;14.984;2022-08-19T03:05:13;15.20;74.50
29093;DHT22;16167;48.768;14.984;2022-08-19T03:07:41;15.20;83.40
29093;DHT22;16167;48.768;14.984;2022-08-19T03:10:09;15.30;63.00
29093;DHT22;16167;48.768;14.984;2022-08-19T03:12:38;15.30;69.80
29093;DHT22;16167;48.768;14.984;2022-08-19T03:15:08;15.30;70.70
29093;DHT22;16167;48.768;14.984;2022-08-19T03:17:37;15.30;75.90
29093;DHT22;16167;48.768;14.984;2022-08-19T03:20:06;15.30;79.40
29093;DHT22;16167;48.768;14.984;2022-08-19T03:22:34;15.30;79.20
29093;DHT22;16167;48.768;14.984;2022-08-19T03:25:03;15.30;67.70
29093;DHT22;16167;48.768;14.984;2022-08-19T03:27:31;15.30;78.50
29093;DHT22;16167;48.768;14.984;2022-08-19T03:30:03;15.20;77.70
29093;DHT22;16167;48.768;14.984;2022-08-19T03:32:32;15.20;79.50
29093;DHT22;16167;48.768;14.984;2022-08-19T03:35:08;15.20;75.90
29093;DHT22;16167;48.768;14.984;2022-08-19T03:37:36;15.20;77.50
29093;DHT22;16167;48.768;14.984;2022-08-19T03:40:07;15.20;77.30
29093;DHT22;16167;48.768;14.984;2022-08-19T03:42:46;15.20;69.70
29093;DHT22;16167;48.768;14.984;2022-08-19T03:45:15;15.20;74.10
29093;DHT22;16167;48.768;14.984;2022-08-19T03:47:43;15.20;82.20
29093;DHT22;16167;48.768;14.984;2022-08-19T03:50:14;15.20;81.80
29093;DHT22;16167;48.768;14.984;2022-08-19T03:52:43;15.20;79.60
29093;DHT22;16167;48.768;14.984;2022-08-19T03:55:31;15.20;70.60
29093;DHT22;16167;48.768;14.984;2022-08-19T03:58:01;15.20;68.40
29093;DHT22;16167;48.768;14.984;2022-08-19T04:00:29;15.10;71.30
29093;DHT22;16167;48.768;14.984;2022-08-19T04:02:57;15.10;69.50
29093;DHT22;16167;48.768;14.984;2022-08-19T04:05:29;15.10;70.40
29093;DHT22;16167;48.768;14.984;2022-08-19T04:07:57;15.00;66.00
29093;DHT22;16167;48.768;14.984;2022-08-19T04:10:28;15.00;71.70
29093;DHT22;16167;48.768;14.984;2022-08-19T04:12:56;15.00;66.40
29093;DHT22;16167;48.768;14.984;2022-08-19T04:15:24;15.00;63.90
29093;DHT22;16167;48.768;14.984;2022-08-19T04:17:52;15.10;66.10
29093;DHT22;16167;48.768;14.984;2022-08-19T04:20:45;15.10;68.20
29093;DHT22;16167;48.768;14.984;2022-08-19T04:23:14;15.10;71.50
29093;DHT22;16167;48.768;14.984;2022-08-19T04:25:44;15.10;69.30
29093;DHT22;16167;48.768;14.984;2022-08-19T04:28:12;15.10;68.20
29093;DHT22;16167;48.768;14.984;2022-08-19T04:30:43;15.10;66.50
29093;DHT22;16167;48.768;14.984;2022-08-19T04:33:12;15.20;73.60
29093;DHT22;16167;48.768;14.984;2022-08-19T04:35:57;15.30;72.10
29093;DHT22;16167;48.768;14.984;2022-08-19T04:38:27;15.30;80.90
29093;DHT22;16167;48.768;14.984;2022-08-19T04:40:55;15.30;78.20
29093;DHT22;16167;48.768;14.984;2022-08-19T04:43:41;15.40;82.10
29093;DHT22;16167;48.768;14.984;2022-08-19T04:46:13;15.40;79.60
29093;DHT22;16167;48.768;14.984;2022-08-19T04:49:01;15.50;80.40
29093;DHT22;16167;48.768;14.984;2022-08-19T04:51:46;15.50;79.10
29093;DHT22;16167;48.768;14.984;2022-08-19T04:54:15;15.50;68.60
29093;DHT22;16167;48.768;14.984;2022-08-19T04:57:21;15.60;79.00
29093;DHT22;16167;48.768;14.984;2022-08-19T04:59:53;15.70;75.70
29093;DHT22;16167;48.768;14.984;2022-08-19T05:02:21;15.80;74.00
29093;DHT22;16167;48.768;14.984;2022-08-19T05:05:05;15.80;73.20
29093;DHT22;16167;48.768;14.984;2022-08-19T05:07:38;15.90;70.00
29093;DHT22;16167;48.768;14.984;2022-08-19T05:10:10;16.00;73.50
29093;DHT22;16167;48.768;14.984;2022-08-19T05:12:38;16.00;70.30
29093;DHT22;16167;48.768;14.984;2022-08-19T05:15:07;16.10;62.80
29093;DHT22;16167;48.768;14.984;2022-08-19T05:17:35;16.20;64.10
29093;DHT22;16167;48.768;14.984;2022-08-19T05:20:08;16.30;60.50
29093;DHT22;16167;48.768;14.984;2022-08-19T05:22:55;16.40;56.60
29093;DHT22;16167;48.768;14.984;2022-08-19T05:25:24;16.60;58.20
29093;DHT22;16167;48.768;14.984;2022-08-19T05:27:52;16.60;59.50
29093;DHT22;16167;48.768;14.984;2022-08-19T05:30:21;16.70;54.50
29093;DHT22;16167;48.768;14.984;2022-08-19T05:33:08;16.80;52.50
29093;DHT22;16167;48.768;14.984;2022-08-19T05:35:41;16.80;50.00
29093;DHT22;16167;48.768;14.984;2022-08-19T05:38:31;16.90;49.10
29093;DHT22;16167;48.768;14.984;2022-08-19T05:40:59;16.90;48.10
29093;DHT22;16167;48.768;14.984;2022-08-19T05:43:29;17.00;57.00
29093;DHT22;16167;48.768;14.984;2022-08-19T05:45:57;17.00;60.20
29093;DHT22;16167;48.768;14.984;2022-08-19T05:48:26;17.00;53.60
29093;DHT22;16167;48.768;14.984;2022-08-19T05:50:55;17.00;52.20
29093;DHT22;16167;48.768;14.984;2022-08-19T05:53:32;17.10;54.60
29093;DHT22;16167;48.768;14.984;2022-08-19T05:56:04;17.10;54.80
29093;DHT22;16167;48.768;14.984;2022-08-19T05:58:42;17.10;64.30
29093;DHT22;16167;48.768;14.984;2022-08-19T06:01:14;17.20;67.50
29093;DHT22;16167;48.768;14.984;2022-08-19T06:03:43;17.30;72.60
29093;DHT22;16167;48.768;14.984;2022-08-19T06:06:14;17.30;79.70
29093;DHT22;16167;48.768;14.984;2022-08-19T06:08:44;17.30;79.90
29093;DHT22;16167;48.768;14.984;2022-08-19T06:11:18;17.30;87.30
29093;DHT22;16167;48.768;14.984;2022-08-19T06:13:50;17.30;88.90
29093;DHT22;16167;48.768;14.984;2022-08-19T06:16:26;17.30;93.30
29093;DHT22;16167;48.768;14.984;2022-08-19T06:18:56;17.30;90.50
29093;DHT22;16167;48.768;14.984;2022-08-19T06:21:26;17.40;91.60
29093;DHT22;16167;48.768;14.984;2022-08-19T06:23:57;17.40;93.50
29093;DHT22;16167;48.768;14.984;2022-08-19T06:26:25;17.40;95.70
29093;DHT22;16167;48.768;14.984;2022-08-19T06:28:54;17.40;94.20
29093;DHT22;16167;48.768;14.984;2022-08-19T06:31:27;17.40;93.80
29093;DHT22;16167;48.768;14.984;2022-08-19T06:33:55;17.50;93.20
29093;DHT22;16167;48.768;14.984;2022-08-19T06:36:28;17.50;94.90
29093;DHT22;16167;48.768;14.984;2022-08-19T06:39:00;17.50;94.90
29093;DHT22;16167;48.768;14.984;2022-08-19T06:41:28;17.60;96.80
29093;DHT22;16167;48.768;14.984;2022-08-19T06:43:58;17.60;94.80
29093;DHT22;16167;48.768;14.984;2022-08-19T06:46:26;17.70;96.90
29093;DHT22;16167;48.768;14.984;2022-08-19T06:49:02;17.80;97.30
29093;DHT22;16167;48.768;14.984;2022-08-19T06:51:31;18.00;98.20
29093;DHT22;16167;48.768;14.984;2022-08-19T06:54:10;18.20;97.20
29093;DHT22;16167;48.768;14.984;2022-08-19T06:56:57;18.40;97.10
29093;DHT22;16167;48.768;14.984;2022-08-19T06:59:29;18.70;93.60
29093;DHT22;16167;48.768;14.984;2022-08-19T07:02:01;18.80;91.70
29093;DHT22;16167;48.768;14.984;2022-08-19T07:04:34;19.10;81.20
29093;DHT22;16167;48.768;14.984;2022-08-19T07:07:06;19.30;76.90
29093;DHT22;16167;48.768;14.984;2022-08-19T07:09:49;19.50;71.20
29093;DHT22;16167;48.768;14.984;2022-08-19T07:12:28;19.70;70.90
29093;DHT22;16167;48.768;14.984;2022-08-19T07:15:01;19.90;56.80
29093;DHT22;16167;48.768;14.984;2022-08-19T07:17:30;20.00;48.00
29093;DHT22;16167;48.768;14.984;2022-08-19T07:20:01;20.10;42.50
29093;DHT22;16167;48.768;14.984;2022-08-19T07:22:38;20.20;36.20
29093;DHT22;16167;48.768;14.984;2022-08-19T07:25:20;20.30;29.50
29093;DHT22;16167;48.768;14.984;2022-08-19T07:27:58;20.40;23.90
29093;DHT22;16167;48.768;14.984;2022-08-19T07:30:50;20.60;22.80
29093;DHT22;16167;48.768;14.984;2022-08-19T07:33:20;20.70;2.30
29093;DHT22;16167;48.768;14.984;2022-08-19T07:35:49;20.80;18.40
29093;DHT22;16167;48.768;14.984;2022-08-19T07:38:22;21.00;15.30
29093;DHT22;16167;48.768;14.984;2022-08-19T07:40:51;21.10;9.60
29093;DHT22;16167;48.768;14.984;2022-08-19T07:43:20;21.30;6.10
29093;DHT22;16167;48.768;14.984;2022-08-19T07:46:03;21.50;4.70
29093;DHT22;16167;48.768;14.984;2022-08-19T07:48:32;21.70;3.20
29093;DHT22;16167;48.768;14.984;2022-08-19T07:51:09;21.70;1.00
29093;DHT22;16167;48.768;14.984;2022-08-19T07:53:40;21.80;1.00
29093;DHT22;16167;48.768;14.984;2022-08-19T07:56:24;21.80;1.00
29093;DHT22;16167;48.768;14.984;2022-08-19T07:59:02;22.00;1.00
29093;DHT22;16167;48.768;14.984;2022-08-19T08:01:30;22.10;1.00
29093;DHT22;16167;48.768;14.984;2022-08-19T08:04:07;22.40;1.00
29093;DHT22;16167;48.768;14.984;2022-08-19T08:06:53;22.60;1.00
29093;DHT22;16167;48.768;14.984;2022-08-19T08:09:40;22.80;1.00
29093;DHT22;16167;48.768;14.984;2022-08-19T08:12:17;23.10;1.00
29093;DHT22;16167;48.768;14.984;2022-08-19T08:15:05;23.30;1.00
29093;DHT22;16167;48.768;14.984;2022-08-19T08:17:44;23.50;1.00
29093;DHT22;16167;48.768;14.984;2022-08-19T08:20:18;24.00;1.00
29093;DHT22;16167;48.768;14.984;2022-08-19T08:22:47;24.10;1.00
29093;DHT22;16167;48.768;14.984;2022-08-19T08:25:37;24.10;1.00
29093;DHT22;16167;48.768;14.984;2022-08-19T08:28:14;24.20;1.00
29093;DHT22;16167;48.768;14.984;2022-08-19T08:30:45;24.30;1.00
29093;DHT22;16167;48.768;14.984;2022-08-19T08:33:27;24.50;1.00
29093;DHT22;16167;48.768;14.984;2022-08-19T08:36:04;24.70;1.00
29093;DHT22;16167;48.768;14.984;2022-08-19T08:38:33;24.90;1.00
29093;DHT22;16167;48.768;14.984;2022-08-19T08:41:14;25.00;1.00
29093;DHT22;16167;48.768;14.984;2022-08-19T08:43:49;25.20;1.00
29093;DHT22;16167;48.768;14.984;2022-08-19T08:46:24;25.30;1.00
29093;DHT22;16167;48.768;14.984;2022-08-19T08:49:02;25.50;1.00
29093;DHT22;16167;48.768;14.984;2022-08-19T08:51:38;25.70;1.00
29093;DHT22;16167;48.768;14.984;2022-08-19T08:54:13;26.00;1.00
29093;DHT22;16167;48.768;14.984;2022-08-19T08:56:42;26.40;1.00
29093;DHT22;16167;48.768;14.984;2022-08-19T08:59:19;26.50;1.00
29093;DHT22;16167;48.768;14.984;2022-08-19T09:01:48;26.60;1.00
29093;DHT22;16167;48.768;14.984;2022-08-19T09:04:16;26.70;1.00
29093;DHT22;16167;48.768;14.984;2022-08-19T09:06:50;26.80;1.00
29093;DHT22;16167;48.768;14.984;2022-08-19T09:09:26;27.00;1.00
29093;DHT22;16167;48.768;14.984;2022-08-19T09:12:06;27.00;1.00
29093;DHT22;16167;48.768;14.984;2022-08-19T09:14:45;27.10;1.00
29093;DHT22;16167;48.768;14.984;2022-08-19T09:20:19;27.30;1.00
29093;DHT22;16167;48.768;14.984;2022-08-19T09:22:55;27.30;1.00
29093;DHT22;16167;48.768;14.984;2022-08-19T09:25:24;27.50;1.00
29093;DHT22;16167;48.768;14.984;2022-08-19T09:27:57;27.60;1.00
29093;DHT22;16167;48.768;14.984;2022-08-19T09:30:52;27.80;1.00
29093;DHT22;16167;48.768;14.984;2022-08-19T09:33:20;28.10;1.00
29093;DHT22;16167;48.768;14.984;2022-08-19T09:35:49;28.30;1.00
29093;DHT22;16167;48.768;14.984;2022-08-19T09:38:19;28.40;1.00
29093;DHT22;16167;48.768;14.984;2022-08-19T09:40:48;28.60;1.00
29093;DHT22;16167;48.768;14.984;2022-08-19T09:43:17;28.50;1.00
29093;DHT22;16167;48.768;14.984;2022-08-19T09:46:01;28.60;1.00
29093;DHT22;16167;48.768;14.984;2022-08-19T09:48:30;28.70;1.00
29093;DHT22;16167;48.768;14.984;2022-08-19T09:51:03;28.70;1.00
29093;DHT22;16167;48.768;14.984;2022-08-19T09:53:31;28.50;1.00
29093;DHT22;16167;48.768;14.984;2022-08-19T09:56:00;28.40;1.00
29093;DHT22;16167;48.768;14.984;2022-08-19T09:58:30;28.00;1.00
29093;DHT22;16167;48.768;14.984;2022-08-19T10:01:03;27.70;1.00
29093;DHT22;16167;48.768;14.984;2022-08-19T10:03:34;27.60;1.00
29093;DHT22;16167;48.768;14.984;2022-08-19T10:06:05;27.50;1.00
29093;DHT22;16167;48.768;14.984;2022-08-19T10:08:41;27.50;1.00
29093;DHT22;16167;48.768;14.984;2022-08-19T10:11:17;27.50;1.00
29093;DHT22;16167;48.768;14.984;2022-08-19T10:14:11;27.60;1.00
29093;DHT22;16167;48.768;14.984;2022-08-19T10:16:45;27.60;1.00
29093;DHT22;16167;48.768;14.984;2022-08-19T10:19:48;27.60;1.00
29093;DHT22;16167;48.768;14.984;2022-08-19T10:22:24;27.60;1.00
29093;DHT22;16167;48.768;14.984;2022-08-19T10:24:52;27.60;1.00
29093;DHT22;16167;48.768;14.984;2022-08-19T10:27:20;27.70;1.00
29093;DHT22;16167;48.768;14.984;2022-08-19T10:29:48;27.60;1.00
29093;DHT22;16167;48.768;14.984;2022-08-19T10:32:18;27.50;1.00
29093;DHT22;16167;48.768;14.984;2022-08-19T10:35:00;27.30;1.00
29093;DHT22;16167;48.768;14.984;2022-08-19T10:37:32;27.30;1.00
29093;DHT22;16167;48.768;14.984;2022-08-19T10:40:01;27.30;1.00
29093;DHT22;16167;48.768;14.984;2022-08-19T10:42:31;27.30;1.00
29093;DHT22;16167;48.768;14.984;2022-08-19T10:44:59;27.40;1.00
29093;DHT22;16167;48.768;14.984;2022-08-19T10:47:33;27.40;1.00
29093;DHT22;16167;48.768;14.984;2022-08-19T10:50:01;27.30;1.00
29093;DHT22;16167;48.768;14.984;2022-08-19T10:52:54;27.30;1.00
29093;DHT22;16167;48.768;14.984;2022-08-19T10:55:24;27.30;1.00
29093;DHT22;16167;48.768;14.984;2022-08-19T10:58:11;27.40;1.00
29093;DHT22;16167;48.768;14.984;2022-08-19T11:00:40;27.30;1.00
29093;DHT22;16167;48.768;14.984;2022-08-19T11:03:11;27.20;1.00
29093;DHT22;16167;48.768;14.984;2022-08-19T11:05:39;27.40;1.00
29093;DHT22;16167;48.768;14.984;2022-08-19T11:08:10;27.60;1.00
29093;DHT22;16167;48.768;14.984;2022-08-19T11:10:50;28.70;1.00
29093;DHT22;16167;48.768;14.984;2022-08-19T11:13:20;29.60;1.00
29093;DHT22;16167;48.768;14.984;2022-08-19T11:15:56;30.10;1.00
29093;DHT22;16167;48.768;14.984;2022-08-19T11:18:32;30.50;1.00
29093;DHT22;16167;48.768;14.984;2022-08-19T11:21:08;30.50;1.00
29093;DHT22;16167;48.768;14.984;2022-08-19T11:23:47;30.70;1.00
29093;DHT22;16167;48.768;14.984;2022-08-19T11:26:18;30.90;1.00
29093;DHT22;16167;48.768;14.984;2022-08-19T11:28:48;30.90;1.00
29093;DHT22;16167;48.768;14.984;2022-08-19T11:31:22;31.10;1.00
29093;DHT22;16167;48.768;14.984;2022-08-19T11:33:57;31.20;1.00
29093;DHT22;16167;48.768;14.984;2022-08-19T11:36:27;31.60;1.00
29093;DHT22;16167;48.768;14.984;2022-08-19T11:38:58;32.00;1.00
29093;DHT22;16167;48.768;14.984;2022-08-19T11:41:27;32.20;1.00
29093;DHT22;16167;48.768;14.984;2022-08-19T11:43:55;32.60;1.00
29093;DHT22;16167;48.768;14.984;2022-08-19T11:46:24;33.20;1.00
29093;DHT22;16167;48.768;14.984;2022-08-19T11:48:58;33.60;1.00
29093;DHT22;16167;48.768;14.984;2022-08-19T11:51:28;33.90;1.00
29093;DHT22;16167;48.768;14.984;2022-08-19T11:53:59;34.30;1.00
29093;DHT22;16167;48.768;14.984;2022-08-19T11:56:28;34.40;1.00
29093;DHT22;16167;48.768;14.984;2022-08-19T11:58:57;34.40;1.00
29093;DHT22;16167;48.768;14.984;2022-08-19T12:01:26;34.30;1.00
29093;DHT22;16167;48.768;14.984;2022-08-19T12:03:57;33.70;1.00
29093;DHT22;16167;48.768;14.984;2022-08-19T12:06:27;33.10;1.00
29093;DHT22;16167;48.768;14.984;2022-08-19T12:09:01;33.20;1.00
29093;DHT22;16167;48.768;14.984;2022-08-19T12:11:30;33.40;1.00
29093;DHT22;16167;48.768;14.984;2022-08-19T12:14:00;33.50;1.00
29093;DHT22;16167;48.768;14.984;2022-08-19T12:16:43;33.20;1.00
29093;DHT22;16167;48.768;14.984;2022-08-19T12:19:19;33.00;1.00
29093;DHT22;16167;48.768;14.984;2022-08-19T12:21:50;32.90;1.00
29093;DHT22;16167;48.768;14.984;2022-08-19T12:24:19;33.10;1.00
29093;DHT22;16167;48.768;14.984;2022-08-19T12:26:50;32.70;1.00
29093;DHT22;16167;48.768;14.984;2022-08-19T12:29:28;32.30;1.00
29093;DHT22;16167;48.768;14.984;2022-08-19T12:31:59;32.90;1.00
29093;DHT22;16167;48.768;14.984;2022-08-19T12:34:32;33.60;1.00
29093;DHT22;16167;48.768;14.984;2022-08-19T12:37:02;33.70;1.00
29093;DHT22;16167;48.768;14.984;2022-08-19T12:39:34;34.10;1.00
29093;DHT22;16167;48.768;14.984;2022-08-19T12:42:03;34.60;1.00
29093;DHT22;16167;48.768;14.984;2022-08-19T12:44:32;35.00;1.00
29093;DHT22;16167;48.768;14.984;2022-08-19T12:47:02;35.40;1.00
29093;DHT22;16167;48.768;14.984;2022-08-19T12:49:34;35.30;1.00
29093;DHT22;16167;48.768;14.984;2022-08-19T12:52:22;34.90;1.00
29093;DHT22;16167;48.768;14.984;2022-08-19T12:54:50;34.30;1.00
29093;DHT22;16167;48.768;14.984;2022-08-19T12:57:23;34.70;1.00
29093;DHT22;16167;48.768;14.984;2022-08-19T13:00:00;34.40;1.00
29093;DHT22;16167;48.768;14.984;2022-08-19T13:02:31;34.20;1.00
29093;DHT22;16167;48.768;14.984;2022-08-19T13:05:09;34.60;1.00
29093;DHT22;16167;48.768;14.984;2022-08-19T13:07:38;34.90;1.00
29093;DHT22;16167;48.768;14.984;2022-08-19T13:10:11;35.00;1.00
29093;DHT22;16167;48.768;14.984;2022-08-19T13:12:39;35.40;1.00
29093;DHT22;16167;48.768;14.984;2022-08-19T13:15:10;35.50;1.00
29093;DHT22;16167;48.768;14.984;2022-08-19T13:17:42;35.50;1.00
29093;DHT22;16167;48.768;14.984;2022-08-19T13:20:15;35.80;1.00
29093;DHT22;16167;48.768;14.984;2022-08-19T13:22:45;35.90;1.00
29093;DHT22;16167;48.768;14.984;2022-08-19T13:25:16;35.40;1.00
29093;DHT22;16167;48.768;14.984;2022-08-19T13:27:47;34.90;1.00
29093;DHT22;16167;48.768;14.984;2022-08-19T13:30:17;34.40;1.00
29093;DHT22;16167;48.768;14.984;2022-08-19T13:33:04;33.90;1.00
29093;DHT22;16167;48.768;14.984;2022-08-19T13:35:45;33.50;1.00
29093;DHT22;16167;48.768;14.984;2022-08-19T13:38:17;33.30;1.00
29093;DHT22;16167;48.768;14.984;2022-08-19T13:40:47;32.90;1.00
29093;DHT22;16167;48.768;14.984;2022-08-19T13:43:17;32.50;1.00
29093;DHT22;16167;48.768;14.984;2022-08-19T13:45:50;32.30;1.00
29093;DHT22;16167;48.768;14.984;2022-08-19T13:48:23;32.10;1.00
29093;DHT22;16167;48.768;14.984;2022-08-19T13:50:55;31.70;1.00
29093;DHT22;16167;48.768;14.984;2022-08-19T13:53:28;31.50;1.00
29093;DHT22;16167;48.768;14.984;2022-08-19T13:56:26;31.60;1.00
29093;DHT22;16167;48.768;14.984;2022-08-19T13:58:54;31.40;1.00
29093;DHT22;16167;48.768;14.984;2022-08-19T14:01:25;31.40;1.00
29093;DHT22;16167;48.768;14.984;2022-08-19T14:04:01;31.30;1.00
29093;DHT22;16167;48.768;14.984;2022-08-19T14:06:30;31.20;1.00
29093;DHT22;16167;48.768;14.984;2022-08-19T14:08:59;31.00;1.00
29093;DHT22;16167;48.768;14.984;2022-08-19T14:11:30;30.90;1.00
29093;DHT22;16167;48.768;14.984;2022-08-19T14:13:58;30.70;1.00
29093;DHT22;16167;48.768;14.984;2022-08-19T14:16:26;30.60;1.00
29093;DHT22;16167;48.768;14.984;2022-08-19T14:18:57;30.50;1.00
29093;DHT22;16167;48.768;14.984;2022-08-19T14:21:25;30.60;1.00
29093;DHT22;16167;48.768;14.984;2022-08-19T14:23:53;30.90;1.00
29093;DHT22;16167;48.768;14.984;2022-08-19T14:26:23;30.90;1.00
29093;DHT22;16167;48.768;14.984;2022-08-19T14:28:53;30.90;1.00
29093;DHT22;16167;48.768;14.984;2022-08-19T14:31:23;30.60;1.00
29093;DHT22;16167;48.768;14.984;2022-08-19T14:33:56;30.40;1.00
29093;DHT22;16167;48.768;14.984;2022-08-19T14:36:25;30.20;1.00
29093;DHT22;16167;48.768;14.984;2022-08-19T14:38:54;30.10;1.00
29093;DHT22;16167;48.768;14.984;2022-08-19T14:41:22;30.20;1.00
29093;DHT22;16167;48.768;14.984;2022-08-19T14:43:55;30.10;1.00
29093;DHT22;16167;48.768;14.984;2022-08-19T14:46:24;30.20;1.00
29093;DHT22;16167;48.768;14.984;2022-08-19T14:48:57;29.90;1.00
29093;DHT22;16167;48.768;14.984;2022-08-19T14:51:26;29.60;1.00
29093;DHT22;16167;48.768;14.984;2022-08-19T14:53:55;29.40;1.00
29093;DHT22;16167;48.768;14.984;2022-08-19T14:56:25;29.20;1.00
29093;DHT22;16167;48.768;14.984;2022-08-19T14:58:55;29.10;1.00
29093;DHT22;16167;48.768;14.984;2022-08-19T15:01:26;29.10;1.00
29093;DHT22;16167;48.768;14.984;2022-08-19T15:03:56;29.40;1.00
29093;DHT22;16167;48.768;14.984;2022-08-19T15:06:25;29.60;1.00
29093;DHT22;16167;48.768;14.984;2022-08-19T15:08:56;29.50;1.00
29093;DHT22;16167;48.768;14.984;2022-08-19T15:11:30;29.30;1.00
29093;DHT22;16167;48.768;14.984;2022-08-19T15:14:00;29.20;1.00
29093;DHT22;16167;48.768;14.984;2022-08-19T15:16:29;29.10;1.00
29093;DHT22;16167;48.768;14.984;2022-08-19T15:18:58;29.10;1.00
29093;DHT22;16167;48.768;14.984;2022-08-19T15:21:28;28.90;1.00
29093;DHT22;16167;48.768;14.984;2022-08-19T15:23:57;28.80;1.00
29093;DHT22;16167;48.768;14.984;2022-08-19T15:26:26;28.70;1.00
29093;DHT22;16167;48.768;14.984;2022-08-19T15:29:22;28.70;1.00
29093;DHT22;16167;48.768;14.984;2022-08-19T15:31:51;28.80;1.00
29093;DHT22;16167;48.768;14.984;2022-08-19T15:34:23;28.80;1.00
29093;DHT22;16167;48.768;14.984;2022-08-19T15:36:52;28.90;1.00
29093;DHT22;16167;48.768;14.984;2022-08-19T15:39:22;28.80;1.00
29093;DHT22;16167;48.768;14.984;2022-08-19T15:41:50;28.80;1.00
29093;DHT22;16167;48.768;14.984;2022-08-19T15:44:21;28.70;1.00
29093;DHT22;16167;48.768;14.984;2022-08-19T15:46:50;28.60;1.00
29093;DHT22;16167;48.768;14.984;2022-08-19T15:49:26;28.70;1.00
29093;DHT22;16167;48.768;14.984;2022-08-19T15:51:54;28.90;1.00
29093;DHT22;16167;48.768;14.984;2022-08-19T15:54:23;29.00;1.00
29093;DHT22;16167;48.768;14.984;2022-08-19T15:56:51;29.10;1.00
29093;DHT22;16167;48.768;14.984;2022-08-19T15:59:41;29.20;1.00
29093;DHT22;16167;48.768;14.984;2022-08-19T16:02:29;29.30;1.00
29093;DHT22;16167;48.768;14.984;2022-08-19T16:05:22;29.30;1.00